B41 EFJY-EFKU

Flight info

Callsign B41
Flight time 0h 23m
Altitude 19000
Route LNE DCT VEH
Aircraft HAWK/M-SDGIRY/C

Departure

Time 2026-04-12 10:33
Airport Jyväskylä Airport (EFJY)

Arrival

Time 2026-04-12 10:56
Airport Kuopio Airport (EFKU)
Time Latitude Longitude Altitude Speed Heading
2026-04-12 10:18 62.40137 25.65754 463 ft 0 kts 232°
2026-04-12 10:28 62.40136 25.65751 463 ft 2 kts 232°
2026-04-12 10:28 62.40135 25.65719 465 ft 4 kts 301°
2026-04-12 10:28 62.40172 25.65647 465 ft 11 kts 317°
2026-04-12 10:28 62.40226 25.65593 466 ft 8 kts 339°
2026-04-12 10:29 62.40287 25.65541 466 ft 9 kts 342°
2026-04-12 10:29 62.40339 25.65522 466 ft 7 kts 356°
2026-04-12 10:29 62.40382 25.65515 466 ft 5 kts 354°
2026-04-12 10:29 62.40415 25.65507 466 ft 5 kts 351°
2026-04-12 10:30 62.40446 25.65499 466 ft 4 kts
2026-04-12 10:30 62.40463 25.65530 465 ft 3 kts 82°
2026-04-12 10:30 62.40466 25.65588 464 ft 5 kts 69°
2026-04-12 10:30 62.40498 25.65651 462 ft 8 kts 35°
2026-04-12 10:31 62.40541 25.65711 461 ft 7 kts 31°
2026-04-12 10:31 62.40580 25.65767 460 ft 6 kts 36°
2026-04-12 10:31 62.40612 25.65800 460 ft 5 kts
2026-04-12 10:31 62.40646 25.65798 460 ft 4 kts
2026-04-12 10:32 62.40682 25.65836 459 ft 8 kts 36°
2026-04-12 10:32 62.40712 25.65932 458 ft 8 kts 70°
2026-04-12 10:32 62.40741 25.66038 458 ft 3 kts 84°
2026-04-12 10:32 62.40734 25.66064 458 ft 3 kts 129°
2026-04-12 10:33 62.40725 25.66086 458 ft 1 kts 134°
2026-04-12 10:33 62.40614 25.66336 460 ft 62 kts 134°
2026-04-12 10:33 62.40103 25.67477 465 ft 149 kts 134°
2026-04-12 10:33 62.39329 25.69169 1491 ft 153 kts 134°
2026-04-12 10:34 62.38537 25.70917 2880 ft 169 kts 135°
2026-04-12 10:34 62.37701 25.72716 4285 ft 170 kts 136°
2026-04-12 10:34 62.36916 25.74647 5535 ft 177 kts 116°
2026-04-12 10:34 62.36572 25.77281 6790 ft 185 kts 105°
2026-04-12 10:35 62.36303 25.79910 8183 ft 177 kts 103°
2026-04-12 10:35 62.36048 25.82569 9291 ft 187 kts 103°
2026-04-12 10:35 62.35794 25.85349 10179 ft 194 kts 103°
2026-04-12 10:35 62.35584 25.87644 10798 ft 199 kts 102°
2026-04-12 10:36 62.35581 25.87674 10806 ft 199 kts 102°
2026-04-12 10:36 62.35390 25.90621 11680 ft 202 kts 88°
2026-04-12 10:36 62.35691 25.93670 12446 ft 213 kts 77°
2026-04-12 10:37 62.36109 25.96791 13241 ft 225 kts 76°
2026-04-12 10:37 62.36577 26.00146 13901 ft 243 kts 75°
2026-04-12 10:37 62.37083 26.03717 14667 ft 255 kts 75°
2026-04-12 10:37 62.37594 26.07463 15458 ft 266 kts 76°
2026-04-12 10:38 62.38083 26.11375 16248 ft 280 kts 77°
2026-04-12 10:38 62.38601 26.15610 16646 ft 302 kts 77°
2026-04-12 10:38 62.39288 26.19908 16990 ft 316 kts 65°
2026-04-12 10:38 62.40583 26.23884 17225 ft 320 kts 53°
2026-04-12 10:39 62.41963 26.27475 17430 ft 312 kts 54°
2026-04-12 10:39 62.43315 26.31143 17321 ft 314 kts 55°
2026-04-12 10:39 62.44650 26.34965 17006 ft 324 kts 57°
2026-04-12 10:39 62.45979 26.38963 16827 ft 329 kts 57°
2026-04-12 10:40 62.47313 26.43009 16776 ft 331 kts 57°
2026-04-12 10:40 62.48636 26.47030 16911 ft 326 kts 57°
2026-04-12 10:40 62.49946 26.50982 16921 ft 319 kts 57°
2026-04-12 10:40 62.51234 26.54886 16844 ft 321 kts 57°
2026-04-12 10:41 62.52526 26.58870 16878 ft 326 kts 57°
2026-04-12 10:41 62.53845 26.62934 16808 ft 333 kts 57°
2026-04-12 10:41 62.55193 26.67059 16793 ft 337 kts 57°
2026-04-12 10:41 62.56563 26.71211 16817 ft 340 kts 57°
2026-04-12 10:42 62.57953 26.75407 16765 ft 345 kts 57°
2026-04-12 10:42 62.59369 26.79638 16788 ft 348 kts 56°
2026-04-12 10:42 62.60844 26.83785 16871 ft 345 kts 54°
2026-04-12 10:42 62.62381 26.87725 16766 ft 338 kts 51°
2026-04-12 10:43 62.65458 26.95323 15967 ft 334 kts 52°
2026-04-12 10:43 62.66977 26.99164 15386 ft 336 kts 52°
2026-04-12 10:43 62.68505 27.03035 14840 ft 338 kts 51°
2026-04-12 10:44 62.70028 27.06899 14443 ft 334 kts 51°
2026-04-12 10:44 62.71537 27.10685 14052 ft 326 kts 51°
2026-04-12 10:44 62.73031 27.14361 13493 ft 322 kts 51°
2026-04-12 10:44 62.74537 27.17980 12821 ft 323 kts 50°
2026-04-12 10:45 62.76053 27.21630 11917 ft 329 kts 50°
2026-04-12 10:45 62.77561 27.25398 11140 ft 330 kts 52°
2026-04-12 10:45 62.79028 27.29168 10918 ft 315 kts 51°
2026-04-12 10:45 62.80424 27.32614 10970 ft 293 kts 51°
2026-04-12 10:46 62.81743 27.35845 10940 ft 276 kts 51°
2026-04-12 10:46 62.82944 27.38945 10918 ft 259 kts 58°
2026-04-12 10:46 62.83472 27.42522 10742 ft 244 kts 94°
2026-04-12 10:46 62.82895 27.45802 10811 ft 224 kts 129°
2026-04-12 10:47 62.81753 27.48077 10586 ft 225 kts 139°
2026-04-12 10:47 62.80561 27.50381 10208 ft 232 kts 133°
2026-04-12 10:47 62.79550 27.53109 9815 ft 235 kts 124°
2026-04-12 10:47 62.78689 27.56131 9538 ft 233 kts 119°
2026-04-12 10:48 62.77947 27.59262 9219 ft 232 kts 116°
2026-04-12 10:48 62.77264 27.62465 8888 ft 232 kts 113°
2026-04-12 10:48 62.76726 27.65771 8622 ft 230 kts 108°
2026-04-12 10:48 62.76309 27.69130 8337 ft 229 kts 105°
2026-04-12 10:49 62.75978 27.72514 8052 ft 227 kts 101°
2026-04-12 10:49 62.75771 27.75933 7715 ft 228 kts 97°
2026-04-12 10:49 62.75742 27.79412 7354 ft 230 kts 90°
2026-04-12 10:49 62.75826 27.82747 7514 ft 208 kts 87°
2026-04-12 10:50 62.76022 27.85757 7169 ft 195 kts 82°
2026-04-12 10:50 62.76360 27.88591 6636 ft 190 kts 76°
2026-04-12 10:50 62.76772 27.91287 6134 ft 187 kts 73°
2026-04-12 10:50 62.77319 27.93956 5315 ft 197 kts 67°
2026-04-12 10:51 62.78293 27.96159 4339 ft 217 kts 32°
2026-04-12 10:51 62.79727 27.97000 3768 ft 212 kts
2026-04-12 10:51 62.81166 27.96816 3304 ft 203 kts 356°
2026-04-12 10:51 62.82526 27.96248 2743 ft 199 kts 341°
2026-04-12 10:52 62.83736 27.95024 2567 ft 180 kts 339°
2026-04-12 10:52 62.84823 27.94148 2607 ft 158 kts 343°
2026-04-12 10:52 62.85836 27.93337 2513 ft 153 kts 342°
2026-04-12 10:52 62.86817 27.92437 2329 ft 154 kts 338°
2026-04-12 10:53 62.87792 27.91541 2156 ft 148 kts 341°
2026-04-12 10:53 62.88702 27.90740 2099 ft 138 kts 340°
2026-04-12 10:53 62.89586 27.89902 1959 ft 138 kts 340°
2026-04-12 10:53 62.90435 27.89113 1879 ft 132 kts 341°
2026-04-12 10:54 62.91320 27.88353 1976 ft 148 kts 340°
2026-04-12 10:54 62.92269 27.87502 2088 ft 148 kts 341°
2026-04-12 10:54 62.93215 27.86677 1913 ft 147 kts 339°
2026-04-12 10:54 62.94168 27.85787 1528 ft 149 kts 340°
2026-04-12 10:55 62.95100 27.84886 1233 ft 144 kts 339°
2026-04-12 10:55 62.96020 27.84081 1027 ft 141 kts 340°
2026-04-12 10:55 62.96905 27.83285 922 ft 134 kts 340°
2026-04-12 10:55 62.97756 27.82482 786 ft 132 kts 340°
2026-04-12 10:56 62.98587 27.81735 583 ft 126 kts 341°
2026-04-12 10:56 62.99376 27.81008 362 ft 121 kts 342°
2026-04-12 10:56 63.00129 27.80317 308 ft 108 kts 338°
2026-04-12 10:56 63.00656 27.79834 314 ft 25 kts 338°
2026-04-12 10:57 63.00689 27.79618 317 ft 15 kts 246°
2026-04-12 10:57 63.00652 27.79433 318 ft 12 kts 243°
2026-04-12 10:57 63.00607 27.79285 317 ft 11 kts 219°
2026-04-12 10:57 63.00543 27.79183 316 ft 11 kts 216°
2026-04-12 10:58 63.00489 27.79094 316 ft 9 kts 215°
2026-04-12 10:58 63.00440 27.79019 316 ft 8 kts 216°
2026-04-12 10:58 63.00407 27.78996 316 ft 3 kts 135°
2026-04-12 10:58 63.00405 27.79013 316 ft 3 kts 82°
2026-04-12 10:59 63.00409 27.79042 316 ft 0 kts 71°